createdAt,value
2023-04-09T00:01:19.474Z,83.63
2023-04-09T00:03:46.772Z,83.55
2023-04-09T00:06:14.255Z,84.18
2023-04-09T00:08:41.545Z,84.52
2023-04-09T00:11:08.992Z,84.68
2023-04-09T00:13:39.518Z,84.92
2023-04-09T00:16:08.717Z,84.97
2023-04-09T00:18:36.554Z,85.04
2023-04-09T00:21:03.822Z,85.16
2023-04-09T00:23:31.037Z,85.24
2023-04-09T00:25:58.872Z,85.42
2023-04-09T00:28:26.409Z,85.90
2023-04-09T00:30:53.713Z,85.62
2023-04-09T00:33:21.106Z,85.67
2023-04-09T00:35:48.458Z,85.38
2023-04-09T00:38:15.891Z,85.50
2023-04-09T00:40:43.230Z,85.17
2023-04-09T00:43:10.843Z,85.30
2023-04-09T00:45:38.581Z,85.29
2023-04-09T00:48:06.342Z,85.42
2023-04-09T00:50:33.779Z,85.34
2023-04-09T00:53:01.580Z,85.16
2023-04-09T00:55:29.668Z,85.24
2023-04-09T00:57:56.953Z,85.17
2023-04-09T01:00:24.270Z,85.54
2023-04-09T01:02:54.608Z,85.52
2023-04-09T01:05:22.093Z,85.59
2023-04-09T01:08:08.883Z,84.92
2023-04-09T01:10:54.521Z,84.83
2023-04-09T01:13:46.770Z,85.15
2023-04-09T01:16:17.437Z,85.28
2023-04-09T01:18:57.026Z,85.46
2023-04-09T01:21:29.039Z,85.57
2023-04-09T01:24:25.383Z,85.70
2023-04-09T01:26:57.846Z,85.91
2023-04-09T01:29:37.750Z,86.05
2023-04-09T01:32:07.348Z,86.16
2023-04-09T01:34:36.598Z,86.30
2023-04-09T01:37:04.818Z,86.16
2023-04-09T01:39:33.218Z,86.24
2023-04-09T01:42:04.206Z,86.22
2023-04-09T01:44:33.510Z,86.42
2023-04-09T01:47:01.917Z,86.48
2023-04-09T01:49:30.090Z,86.35
2023-04-09T01:51:58.099Z,86.23
2023-04-09T01:54:25.621Z,86.32
2023-04-09T01:56:53.132Z,86.18
2023-04-09T01:59:20.789Z,85.73
2023-04-09T02:01:53.934Z,85.88
2023-04-09T02:04:32.513Z,85.97
2023-04-09T02:07:29.729Z,85.60
2023-04-09T02:09:59.931Z,85.26
2023-04-09T02:12:30.919Z,85.28
2023-04-09T02:15:01.845Z,85.31
2023-04-09T02:17:29.397Z,85.24
2023-04-09T02:19:56.837Z,85.45
2023-04-09T02:22:24.260Z,85.64
2023-04-09T02:24:51.743Z,85.42
2023-04-09T02:27:19.174Z,85.08
2023-04-09T02:29:46.658Z,84.99
2023-04-09T02:32:14.041Z,85.20
2023-04-09T02:34:41.549Z,85.21
2023-04-09T02:37:09.055Z,85.77
2023-04-09T02:39:36.296Z,85.86
2023-04-09T02:42:03.966Z,86.16
2023-04-09T02:44:31.150Z,86.15
2023-04-09T02:46:58.582Z,86.34
2023-04-09T02:49:25.950Z,86.44
2023-04-09T02:51:53.324Z,86.34
2023-04-09T02:54:20.596Z,86.37
2023-04-09T02:56:47.869Z,86.29
2023-04-09T02:59:15.144Z,85.63
2023-04-09T03:01:42.722Z,85.63
2023-04-09T03:04:10.172Z,85.54
2023-04-09T03:06:37.656Z,84.75
2023-04-09T03:09:04.961Z,84.66
2023-04-09T03:11:32.283Z,84.68
2023-04-09T03:13:59.533Z,84.87
2023-04-09T03:16:26.935Z,84.90
2023-04-09T03:18:54.524Z,85.19
2023-04-09T03:21:21.989Z,85.17
2023-04-09T03:23:51.001Z,85.65
2023-04-09T03:26:18.307Z,86.81
2023-04-09T03:28:48.806Z,86.81
2023-04-09T03:31:17.391Z,86.77
2023-04-09T03:33:46.436Z,86.14
2023-04-09T03:36:14.356Z,86.12
2023-04-09T03:39:13.803Z,85.96
2023-04-09T03:41:46.637Z,86.07
2023-04-09T03:44:17.264Z,86.82
2023-04-09T03:47:04.813Z,86.60
2023-04-09T03:49:32.122Z,86.19
2023-04-09T03:52:08.017Z,85.87
2023-04-09T03:54:39.017Z,85.85
2023-04-09T03:57:13.029Z,85.76
2023-04-09T03:59:42.991Z,86.49
2023-04-09T04:02:11.731Z,86.89
2023-04-09T04:04:44.648Z,86.95
2023-04-09T04:07:12.198Z,87.01
2023-04-09T04:09:59.668Z,87.21
2023-04-09T04:12:27.270Z,87.59
2023-04-09T04:15:14.984Z,87.65
2023-04-09T04:17:47.180Z,88.06
2023-04-09T04:20:23.868Z,88.47
2023-04-09T04:23:00.413Z,88.58
2023-04-09T04:25:28.061Z,88.55
2023-04-09T04:27:56.672Z,88.47
2023-04-09T04:30:30.827Z,88.55
2023-04-09T04:33:07.795Z,88.72
2023-04-09T04:35:47.227Z,88.49
2023-04-09T04:38:31.451Z,88.29
2023-04-09T04:41:02.361Z,88.00
2023-04-09T04:43:31.050Z,87.44
2023-04-09T04:46:00.349Z,86.97
2023-04-09T04:48:31.301Z,86.79
2023-04-09T04:51:01.197Z,86.45
2023-04-09T04:53:36.403Z,85.98
2023-04-09T04:56:16.432Z,85.42
2023-04-09T04:59:01.156Z,84.76
2023-04-09T05:01:34.144Z,84.08
2023-04-09T05:04:04.588Z,84.51
2023-04-09T05:06:37.266Z,85.27
2023-04-09T05:09:09.049Z,85.92
2023-04-09T05:11:47.316Z,86.23
2023-04-09T05:14:21.858Z,86.32
2023-04-09T05:16:49.569Z,85.85
2023-04-09T05:19:19.720Z,85.95
2023-04-09T05:21:47.652Z,85.75
2023-04-09T05:24:21.358Z,85.63
2023-04-09T05:26:48.639Z,85.15
2023-04-09T05:29:17.870Z,84.71
2023-04-09T05:31:45.166Z,83.66
2023-04-09T05:34:22.470Z,83.56
2023-04-09T05:36:54.164Z,82.81
2023-04-09T05:39:23.241Z,81.62
2023-04-09T05:41:52.762Z,81.01
2023-04-09T05:44:26.195Z,80.51
2023-04-09T05:47:00.899Z,77.07
2023-04-09T05:49:34.755Z,75.14
2023-04-09T05:52:07.527Z,72.42
2023-04-09T05:54:35.776Z,71.40
2023-04-09T05:57:04.952Z,67.26
2023-04-09T05:59:35.891Z,62.27
2023-04-09T06:02:03.371Z,57.77
2023-04-09T06:04:30.664Z,53.52
2023-04-09T06:07:00.627Z,51.63
2023-04-09T06:09:30.662Z,50.86
2023-04-09T06:11:58.063Z,50.78
2023-04-09T06:14:25.342Z,48.51
2023-04-09T06:16:52.624Z,47.54
2023-04-09T06:19:19.972Z,46.32
2023-04-09T06:21:47.262Z,45.39
2023-04-09T06:24:14.497Z,44.95
2023-04-09T06:26:41.882Z,43.36
2023-04-09T06:29:09.203Z,41.09
2023-04-09T06:31:36.521Z,39.73
2023-04-09T06:34:03.850Z,38.29
2023-04-09T06:36:31.082Z,38.04
2023-04-09T06:38:59.683Z,36.76
2023-04-09T06:41:27.018Z,36.32
2023-04-09T06:43:55.159Z,36.28
2023-04-09T06:46:22.757Z,36.11
2023-04-09T06:48:50.456Z,33.25
2023-04-09T06:51:17.762Z,31.93
2023-04-09T06:53:45.193Z,31.90
2023-04-09T06:56:12.411Z,29.55
2023-04-09T06:58:39.758Z,29.77
2023-04-09T07:01:06.957Z,28.46
2023-04-09T07:03:34.423Z,28.95
2023-04-09T07:06:01.780Z,27.23
2023-04-09T07:08:29.123Z,26.60
2023-04-09T07:10:56.602Z,26.18
2023-04-09T07:13:23.871Z,25.80
2023-04-09T07:15:51.318Z,25.03
2023-04-09T07:18:18.692Z,24.61
2023-04-09T07:20:46.229Z,24.00
2023-04-09T07:23:13.521Z,24.12
2023-04-09T07:25:41.052Z,23.79
2023-04-09T07:28:08.368Z,23.63
2023-04-09T07:30:35.859Z,23.26
2023-04-09T07:33:03.165Z,23.23
2023-04-09T07:35:30.679Z,22.57
2023-04-09T07:37:59.378Z,24.08
2023-04-09T07:40:26.880Z,25.85
2023-04-09T07:42:54.670Z,28.46
2023-04-09T07:45:21.949Z,29.57
2023-04-09T07:47:49.281Z,28.93
2023-04-09T07:50:16.625Z,27.74
2023-04-09T07:52:43.878Z,29.52
2023-04-09T07:55:11.164Z,29.02
2023-04-09T07:57:38.897Z,30.88
2023-04-09T08:00:07.152Z,30.46
2023-04-09T08:02:44.604Z,32.56
2023-04-09T08:05:12.258Z,33.33
2023-04-09T08:07:39.997Z,33.78
2023-04-09T08:10:07.959Z,32.63
2023-04-09T08:12:35.218Z,31.16
2023-04-09T08:15:04.242Z,31.26
2023-04-09T08:17:31.593Z,31.59
2023-04-09T08:19:58.873Z,30.04
2023-04-09T08:22:26.226Z,29.47
2023-04-09T08:24:53.981Z,31.94
2023-04-09T08:27:22.518Z,34.38
2023-04-09T08:29:49.864Z,36.07
2023-04-09T08:32:17.217Z,37.46
2023-04-09T08:34:44.656Z,34.85
2023-04-09T08:37:11.915Z,32.92
2023-04-09T08:39:39.233Z,33.89
2023-04-09T08:42:07.572Z,32.19
2023-04-09T08:44:34.879Z,30.92
2023-04-09T08:47:03.013Z,30.20
2023-04-09T08:49:30.383Z,30.30
2023-04-09T08:51:57.693Z,30.79
2023-04-09T08:54:27.291Z,31.19
2023-04-09T08:56:54.611Z,32.69
2023-04-09T08:59:22.043Z,32.47
2023-04-09T09:01:54.717Z,33.12
2023-04-09T09:04:22.332Z,33.48
2023-04-09T09:06:49.657Z,33.76
2023-04-09T09:09:19.391Z,33.65
2023-04-09T09:11:48.968Z,33.13
2023-04-09T09:14:18.506Z,32.79
2023-04-09T09:17:04.994Z,32.95
2023-04-09T09:19:37.751Z,33.04
2023-04-09T09:22:06.394Z,32.07
2023-04-09T09:24:34.793Z,33.95
2023-04-09T09:27:03.027Z,32.33
2023-04-09T09:29:30.469Z,32.28
2023-04-09T09:31:57.756Z,32.61
2023-04-09T09:34:26.373Z,36.12
2023-04-09T09:36:53.710Z,36.88
2023-04-09T09:39:22.776Z,40.09
2023-04-09T09:42:08.458Z,39.52
2023-04-09T09:44:35.708Z,41.11
2023-04-09T09:47:05.032Z,41.55
2023-04-09T09:49:32.372Z,42.16
2023-04-09T09:52:03.335Z,41.93
2023-04-09T09:54:42.684Z,40.80
2023-04-09T09:57:15.825Z,39.79
2023-04-09T09:59:52.723Z,41.01
2023-04-09T10:02:22.305Z,40.80
2023-04-09T10:04:54.030Z,40.37
2023-04-09T10:07:22.746Z,41.08
2023-04-09T10:09:52.398Z,42.83
2023-04-09T10:12:24.308Z,43.66
2023-04-09T10:14:56.402Z,45.38
2023-04-09T10:17:23.698Z,46.32
2023-04-09T10:20:12.062Z,47.56
2023-04-09T10:22:39.680Z,44.65
2023-04-09T10:25:08.543Z,46.15
2023-04-09T10:27:37.132Z,47.20
2023-04-09T10:30:07.780Z,47.10
2023-04-09T10:32:37.208Z,46.79
2023-04-09T10:35:04.861Z,47.58
2023-04-09T10:37:32.226Z,46.15
2023-04-09T10:39:59.668Z,46.58
2023-04-09T10:42:33.153Z,48.76
2023-04-09T10:47:51.957Z,45.72
2023-04-09T10:50:26.129Z,45.18
2023-04-09T10:52:57.843Z,45.98
2023-04-09T10:55:40.299Z,47.01
2023-04-09T10:58:12.332Z,43.58
2023-04-09T11:00:49.928Z,45.03
2023-04-09T11:03:30.913Z,48.48
2023-04-09T11:06:06.440Z,48.69
2023-04-09T11:08:34.315Z,48.98
2023-04-09T11:11:02.691Z,47.82
2023-04-09T11:13:32.097Z,48.29
2023-04-09T11:16:01.607Z,48.56
2023-04-09T11:18:31.080Z,48.61
2023-04-09T11:21:00.362Z,48.13
2023-04-09T11:23:28.241Z,48.60
2023-04-09T11:25:56.457Z,49.00
2023-04-09T11:28:24.458Z,48.97
2023-04-09T11:30:52.515Z,49.05
2023-04-09T11:33:20.851Z,48.99
2023-04-09T11:35:48.961Z,49.17
2023-04-09T11:38:16.732Z,50.50
2023-04-09T11:40:49.072Z,50.01
2023-04-09T11:43:18.153Z,51.08
2023-04-09T11:45:48.888Z,50.17
2023-04-09T11:48:22.199Z,48.97
2023-04-09T11:50:50.205Z,48.94
2023-04-09T11:53:19.028Z,47.23
2023-04-09T11:55:49.961Z,47.46
2023-04-09T11:58:17.744Z,48.19
2023-04-09T12:00:45.819Z,47.85
2023-04-09T12:03:13.238Z,48.69
2023-04-09T12:05:50.819Z,48.51
2023-04-09T12:08:24.819Z,49.58
2023-04-09T12:10:54.073Z,48.94
2023-04-09T12:13:21.966Z,48.64
2023-04-09T12:15:50.054Z,48.28
2023-04-09T12:18:17.422Z,49.09
2023-04-09T12:20:47.806Z,49.54
2023-04-09T12:23:16.274Z,48.87
2023-04-09T12:25:45.659Z,48.94
2023-04-09T12:28:18.864Z,48.67
2023-04-09T12:30:46.750Z,48.08
2023-04-09T12:33:14.175Z,48.05
2023-04-09T12:35:41.543Z,47.93
2023-04-09T12:38:08.945Z,47.57
2023-04-09T12:40:37.381Z,47.94
2023-04-09T12:43:04.810Z,47.80
2023-04-09T12:45:32.492Z,47.69
2023-04-09T12:47:59.731Z,48.13
2023-04-09T12:50:27.180Z,48.55
2023-04-09T12:52:54.390Z,48.70
2023-04-09T12:55:22.622Z,48.78
2023-04-09T12:57:51.600Z,49.36
2023-04-09T13:00:18.968Z,49.38
2023-04-09T13:02:46.747Z,48.93
2023-04-09T13:05:14.182Z,49.53
2023-04-09T13:07:43.105Z,50.02
2023-04-09T13:10:11.184Z,50.41
2023-04-09T13:12:38.616Z,50.73
2023-04-09T13:15:07.008Z,51.41
2023-04-09T13:17:34.542Z,51.09
2023-04-09T13:20:02.311Z,52.38
2023-04-09T13:22:29.632Z,52.67
2023-04-09T13:24:56.960Z,52.94
2023-04-09T13:27:24.244Z,52.53
2023-04-09T13:29:51.596Z,53.77
2023-04-09T13:32:21.718Z,53.44
2023-04-09T13:34:49.740Z,52.90
2023-04-09T13:37:17.237Z,52.46
2023-04-09T13:39:45.132Z,52.99
2023-04-09T13:42:14.185Z,53.21
2023-04-09T13:44:45.204Z,53.35
2023-04-09T13:47:13.622Z,55.69
2023-04-09T13:49:41.669Z,56.29
2023-04-09T13:52:09.500Z,57.16
2023-04-09T13:54:37.348Z,56.45
2023-04-09T13:57:04.618Z,55.49
2023-04-09T13:59:31.906Z,55.22
2023-04-09T14:01:59.290Z,54.64
2023-04-09T14:04:27.093Z,54.31
2023-04-09T14:06:54.419Z,52.82
2023-04-09T14:09:21.669Z,52.99
2023-04-09T14:11:49.858Z,53.90
2023-04-09T14:14:18.099Z,53.83
2023-04-09T14:16:45.330Z,53.70
2023-04-09T14:19:12.593Z,54.36
2023-04-09T14:21:40.737Z,54.75
2023-04-09T14:24:08.134Z,55.70
2023-04-09T14:26:35.510Z,55.76
2023-04-09T14:29:02.833Z,57.21
2023-04-09T14:31:30.289Z,56.28
2023-04-09T14:33:57.600Z,56.60
2023-04-09T14:36:25.215Z,56.27
2023-04-09T14:38:53.445Z,56.52
2023-04-09T14:41:22.799Z,56.96
2023-04-09T14:43:50.095Z,57.19
2023-04-09T14:46:17.470Z,57.13
2023-04-09T14:48:44.751Z,57.50
2023-04-09T14:51:12.500Z,57.64
2023-04-09T14:53:39.801Z,56.72
2023-04-09T14:56:07.247Z,56.69
2023-04-09T14:58:34.515Z,57.14
2023-04-09T15:01:01.960Z,57.06
2023-04-09T15:03:29.577Z,56.71
2023-04-09T15:05:57.180Z,55.47
2023-04-09T15:08:24.441Z,56.45
2023-04-09T15:10:51.875Z,55.74
2023-04-09T15:13:19.109Z,55.70
2023-04-09T15:15:46.763Z,56.00
2023-04-09T15:18:13.963Z,54.97
2023-04-09T15:20:43.872Z,55.18
2023-04-09T15:23:11.705Z,54.78
2023-04-09T15:25:39.687Z,57.12
2023-04-09T15:28:07.300Z,56.88
2023-04-09T15:30:36.268Z,58.00
2023-04-09T15:33:05.086Z,59.26
2023-04-09T15:35:32.370Z,58.88
2023-04-09T15:37:59.609Z,58.47
2023-04-09T15:40:27.006Z,57.43
2023-04-09T15:42:54.207Z,56.17
2023-04-09T15:45:21.465Z,56.06
2023-04-09T15:47:48.838Z,55.48
2023-04-09T15:50:16.540Z,54.66
2023-04-09T15:52:43.912Z,53.81
2023-04-09T15:55:11.600Z,53.63
2023-04-09T15:57:38.948Z,53.54
2023-04-09T16:00:11.162Z,53.57
2023-04-09T16:02:39.361Z,54.14
2023-04-09T16:05:07.571Z,54.99
2023-04-09T16:07:34.858Z,55.47
2023-04-09T16:10:02.708Z,56.32
2023-04-09T16:12:30.052Z,56.73
2023-04-09T16:14:57.353Z,57.18
2023-04-09T16:17:24.765Z,57.41
2023-04-09T16:19:51.964Z,55.47
2023-04-09T16:22:19.403Z,55.07
2023-04-09T16:24:46.653Z,54.62
2023-04-09T16:27:14.920Z,54.51
2023-04-09T16:29:42.239Z,54.48
2023-04-09T16:32:09.622Z,54.82
2023-04-09T16:34:36.908Z,54.25
2023-04-09T16:37:04.210Z,54.97
2023-04-09T16:39:31.956Z,54.95
2023-04-09T16:41:59.313Z,55.75
2023-04-09T16:44:26.622Z,55.53
2023-04-09T16:46:53.987Z,55.24
2023-04-09T16:49:21.351Z,55.72
2023-04-09T16:51:48.591Z,55.40
2023-04-09T16:54:15.910Z,55.82
2023-04-09T16:56:43.240Z,55.98
2023-04-09T16:59:12.616Z,56.01
2023-04-09T17:01:40.063Z,56.15
2023-04-09T17:04:07.536Z,56.28
2023-04-09T17:06:34.835Z,56.17
2023-04-09T17:09:04.049Z,56.15
2023-04-09T17:11:32.983Z,56.51
2023-04-09T17:14:00.391Z,56.42
2023-04-09T17:16:28.169Z,57.00
2023-04-09T17:18:55.433Z,57.12
2023-04-09T17:21:22.998Z,57.25
2023-04-09T17:23:50.218Z,57.54
2023-04-09T17:26:17.541Z,57.70
2023-04-09T17:28:44.909Z,57.57
2023-04-09T17:31:14.189Z,57.42
2023-04-09T17:33:42.666Z,57.70
2023-04-09T17:36:09.986Z,58.11
2023-04-09T17:38:37.370Z,58.56
2023-04-09T17:41:06.383Z,58.52
2023-04-09T17:43:35.019Z,59.00
2023-04-09T17:46:03.197Z,59.07
2023-04-09T17:48:32.036Z,59.04
2023-04-09T17:50:59.602Z,58.81
2023-04-09T17:53:27.412Z,59.20
2023-04-09T17:55:54.726Z,59.02
2023-04-09T17:58:22.059Z,58.99
2023-04-09T18:00:49.371Z,59.19
2023-04-09T18:03:16.893Z,59.54
2023-04-09T18:05:44.748Z,59.89
2023-04-09T18:08:12.762Z,60.03
2023-04-09T18:10:40.061Z,59.76
2023-04-09T18:13:10.274Z,60.27
2023-04-09T18:15:37.715Z,60.65
2023-04-09T18:18:05.102Z,60.67
2023-04-09T18:20:32.521Z,60.43
2023-04-09T18:22:59.753Z,60.61
2023-04-09T18:25:29.052Z,60.69
2023-04-09T18:27:56.616Z,60.84
2023-04-09T18:30:24.075Z,61.03
2023-04-09T18:32:52.100Z,61.28
2023-04-09T18:35:19.529Z,61.63
2023-04-09T18:37:46.877Z,61.54
2023-04-09T18:40:18.381Z,61.83
2023-04-09T18:42:45.707Z,62.10
2023-04-09T18:45:12.992Z,61.82
2023-04-09T18:47:41.115Z,62.08
2023-04-09T18:50:08.669Z,62.22
2023-04-09T18:52:39.106Z,62.61
2023-04-09T18:55:06.957Z,63.14
2023-04-09T18:57:34.228Z,63.21
2023-04-09T19:00:03.658Z,63.59
2023-04-09T19:02:31.337Z,63.78
2023-04-09T19:04:59.560Z,65.03
2023-04-09T19:07:26.964Z,64.87
2023-04-09T19:09:54.260Z,65.46
2023-04-09T19:12:21.740Z,66.03
2023-04-09T19:14:48.988Z,66.78
2023-04-09T19:17:16.769Z,66.86
2023-04-09T19:19:43.993Z,67.32
2023-04-09T19:22:11.174Z,67.60
2023-04-09T19:24:38.367Z,68.06
2023-04-09T19:27:10.164Z,68.12
2023-04-09T19:29:37.504Z,68.57
2023-04-09T19:32:05.375Z,68.65
2023-04-09T19:34:32.755Z,68.91
2023-04-09T19:37:00.066Z,69.11
2023-04-09T19:39:27.554Z,69.38
2023-04-09T19:41:54.765Z,69.77
2023-04-09T19:44:22.269Z,69.96
2023-04-09T19:46:49.616Z,69.77
2023-04-09T19:49:17.055Z,70.21
2023-04-09T19:51:44.293Z,70.67
2023-04-09T19:54:11.659Z,70.90
2023-04-09T19:56:38.934Z,71.14
2023-04-09T19:59:06.466Z,71.27
2023-04-09T20:01:34.318Z,71.47
2023-04-09T20:04:01.813Z,71.48
2023-04-09T20:06:29.392Z,71.67
2023-04-09T20:08:56.743Z,71.55
2023-04-09T20:11:23.992Z,71.08
2023-04-09T20:13:52.489Z,71.30
2023-04-09T20:16:19.949Z,71.70
2023-04-09T20:18:47.741Z,71.86
2023-04-09T20:21:15.950Z,72.05
2023-04-09T20:23:45.563Z,72.19
2023-04-09T20:26:14.019Z,72.18
2023-04-09T20:28:42.020Z,72.65
2023-04-09T20:31:09.313Z,73.07
2023-04-09T20:33:36.570Z,73.56
2023-04-09T20:36:03.995Z,74.34
2023-04-09T20:38:31.348Z,75.29
2023-04-09T20:40:58.591Z,75.50
2023-04-09T20:43:25.810Z,75.84
2023-04-09T20:45:53.369Z,76.14
2023-04-09T20:48:20.811Z,76.30
2023-04-09T20:50:48.089Z,76.49
2023-04-09T20:53:15.676Z,76.66
2023-04-09T20:55:42.964Z,76.83
2023-04-09T20:58:10.229Z,76.67
2023-04-09T21:00:37.428Z,76.76
2023-04-09T21:03:04.886Z,77.06
2023-04-09T21:05:32.988Z,77.07
2023-04-09T21:08:00.287Z,76.98
2023-04-09T21:10:27.729Z,77.10
2023-04-09T21:12:55.033Z,77.09
2023-04-09T21:15:22.337Z,77.25
2023-04-09T21:17:49.638Z,77.16
2023-04-09T21:20:17.004Z,77.38
2023-04-09T21:22:44.286Z,77.40
2023-04-09T21:25:13.308Z,77.69
2023-04-09T21:27:42.033Z,77.81
2023-04-09T21:30:09.659Z,77.82
2023-04-09T21:32:37.467Z,78.06
2023-04-09T21:35:05.511Z,78.31
2023-04-09T21:37:34.257Z,78.21
2023-04-09T21:40:01.583Z,78.39
2023-04-09T21:42:32.057Z,78.70
2023-04-09T21:44:59.398Z,78.92
2023-04-09T21:47:28.153Z,79.29
2023-04-09T21:49:56.018Z,79.41
2023-04-09T21:52:24.971Z,79.41
2023-04-09T21:54:52.339Z,79.42
2023-04-09T21:57:19.661Z,79.54
2023-04-09T21:59:46.871Z,79.94
2023-04-09T22:02:14.462Z,79.84
2023-04-09T22:04:44.569Z,79.86
2023-04-09T22:07:12.179Z,79.98
2023-04-09T22:09:39.418Z,80.08
2023-04-09T22:12:06.834Z,80.23
2023-04-09T22:14:34.047Z,80.12
2023-04-09T22:17:03.234Z,80.38
2023-04-09T22:19:32.214Z,80.18
2023-04-09T22:21:59.510Z,80.41
2023-04-09T22:24:30.806Z,80.75
2023-04-09T22:27:01.853Z,80.87
2023-04-09T22:29:29.796Z,81.11
2023-04-09T22:31:57.061Z,81.08
2023-04-09T22:34:24.611Z,81.09
2023-04-09T22:36:51.936Z,80.99
2023-04-09T22:39:19.147Z,81.20
2023-04-09T22:41:46.423Z,81.66
2023-04-09T22:44:13.745Z,81.98
2023-04-09T22:46:41.454Z,82.09
2023-04-09T22:49:09.329Z,82.19
2023-04-09T22:51:36.660Z,81.95
2023-04-09T22:54:04.052Z,82.16
2023-04-09T22:56:32.457Z,82.59
2023-04-09T22:58:59.929Z,82.37
2023-04-09T23:01:27.592Z,82.37
2023-04-09T23:03:55.954Z,82.49
2023-04-09T23:06:24.802Z,82.36
2023-04-09T23:08:52.253Z,82.17
2023-04-09T23:11:19.649Z,82.03
2023-04-09T23:13:47.018Z,81.87
2023-04-09T23:16:14.439Z,82.05
2023-04-09T23:18:41.792Z,82.19
2023-04-09T23:21:10.117Z,82.30
2023-04-09T23:23:38.524Z,82.17
2023-04-09T23:26:06.461Z,82.15
2023-04-09T23:28:33.984Z,82.48
2023-04-09T23:31:01.420Z,82.55
2023-04-09T23:33:28.754Z,82.61
2023-04-09T23:35:55.988Z,82.75
2023-04-09T23:38:23.765Z,82.42
2023-04-09T23:40:51.101Z,82.38
2023-04-09T23:43:18.633Z,82.31
2023-04-09T23:45:46.120Z,81.93
2023-04-09T23:48:13.410Z,81.83
2023-04-09T23:50:41.751Z,82.13
2023-04-09T23:53:09.404Z,82.17
2023-04-09T23:55:41.887Z,82.04
2023-04-09T23:58:10.008Z,82.25
